Time;durP1;ratioP1;P1;durP2;ratioP2;P2;SDS_P1;SDS_P2;PMS_P1;PMS_P2;Temp;Humidity;BMP_temperature;BMP_pressure;BME280_temperature;BME280_humidity;BME280_pressure;Samples;Min_cycle;Max_cycle;Signal;HPM_P1;HPM_P2
2021/11/05 00:00:42;;;;;;;;;10.25;9.25;;;;;12.24;64.17;101293.22;2092066;28;48241;-63
2021/11/05 00:01:43;;;;;;;;;5.33;5.33;;;;;12.26;64.06;101301.16;2092227;28;47467;-64
2021/11/05 00:02:45;;;;;;;;;7.00;5.25;;;;;12.25;64.14;101297.63;2092252;28;48472;-64
2021/11/05 00:03:46;;;;;;;;;5.00;4.00;;;;;12.26;64.05;101302.03;2091957;28;47717;-63
2021/11/05 00:04:46;;;;;;;;;10.67;8.67;;;;;12.27;63.92;101305.56;2082826;28;47198;-63
2021/11/05 00:05:47;;;;;;;;;7.50;7.50;;;;;12.27;64.09;101305.56;2083136;28;48163;-63
2021/11/05 00:06:48;;;;;;;;;11.25;11.25;;;;;12.27;64.19;101302.91;2092195;28;47152;-63
2021/11/05 00:07:48;;;;;;;;;7.50;7.00;;;;;12.29;64.04;101304.63;2092034;28;46455;-64
2021/11/05 00:08:49;;;;;;;;;10.50;10.50;;;;;12.29;64.22;101304.63;2092173;28;47262;-63
2021/11/05 00:09:49;;;;;;;;;7.67;7.00;;;;;12.30;64.00;101311.69;2092243;28;45434;-63
2021/11/05 00:10:50;;;;;;;;;24.50;20.50;;;;;12.30;64.15;101306.38;2090405;28;48152;-64
2021/11/05 00:11:51;;;;;;;;;7.75;7.75;;;;;12.31;64.12;101309.91;2083848;28;48052;-63
2021/11/05 00:12:51;;;;;;;;;9.00;9.00;;;;;12.31;64.15;101307.25;2092058;28;48222;-64
2021/11/05 00:13:52;;;;;;;;;10.00;9.33;;;;;12.32;64.08;101314.31;2091840;28;47116;-64
2021/11/05 00:14:53;;;;;;;;;4.67;4.67;;;;;12.33;64.01;101313.44;2083251;28;48321;-64
2021/11/05 00:15:53;;;;;;;;;8.75;8.75;;;;;12.34;64.16;101316.09;2083035;28;48242;-63
2021/11/05 00:16:54;;;;;;;;;9.00;8.00;;;;;12.35;64.25;101312.50;2085289;28;47111;-63
2021/11/05 00:17:54;;;;;;;;;7.33;7.33;;;;;12.35;64.22;101314.28;2083550;28;47203;-63
2021/11/05 00:18:55;;;;;;;;;6.00;6.00;;;;;12.36;64.11;101318.72;2088574;28;46528;-63
2021/11/05 00:19:55;;;;;;;;;6.00;6.00;;;;;12.35;63.89;101312.50;2091995;28;47113;-63
2021/11/05 00:20:56;;;;;;;;;7.00;6.33;;;;;12.36;63.95;101313.38;2083106;28;47950;-63
2021/11/05 00:21:56;;;;;;;;;9.25;9.25;;;;;12.34;63.96;101307.22;2083045;28;48281;-63
2021/11/05 00:22:57;;;;;;;;;11.00;8.00;;;;;12.33;63.88;101306.34;2092078;28;48108;-64
2021/11/05 00:23:58;;;;;;;;;6.00;6.00;;;;;12.32;63.92;101309.91;2091788;28;46994;-63
2021/11/05 00:24:58;;;;;;;;;5.67;5.33;;;;;12.31;64.02;101305.47;2090877;28;48108;-63
2021/11/05 00:25:59;;;;;;;;;15.75;13.25;;;;;12.31;63.80;101307.25;2091879;28;47332;-63
2021/11/05 00:26:59;;;;;;;;;7.33;7.33;;;;;12.30;63.97;101310.81;2092089;28;46505;-63
2021/11/05 00:28:03;;;;;;;;;3.33;3.33;;;;;12.30;63.93;101316.16;2091865;28;47624;-63
2021/11/05 00:29:03;;;;;;;;;5.25;4.75;;;;;12.30;64.03;101311.69;2091984;28;48636;-63
2021/11/05 00:30:08;;;;;;;;;14.50;14.50;;;;;12.30;64.01;101303.72;2091645;28;47459;-63
2021/11/05 00:31:09;;;;;;;;;8.25;7.25;;;;;12.31;63.91;101301.94;2091861;28;47327;-63
2021/11/05 00:32:10;;;;;;;;;4.67;4.00;;;;;12.31;63.83;101309.91;2091962;28;47137;-63
2021/11/05 00:33:11;;;;;;;;;6.25;6.25;;;;;12.32;63.94;101309.00;2074343;28;47446;-63
2021/11/05 00:34:12;;;;;;;;;5.33;4.33;;;;;12.31;63.84;101308.13;2075039;28;47781;-63
2021/11/05 00:35:14;;;;;;;;;4.33;4.33;;;;;12.31;63.89;101321.44;2083011;28;45273;-64
2021/11/05 00:36:15;;;;;;;;;6.00;4.75;;;;;12.30;63.72;101319.69;2083488;28;48195;-63
2021/11/05 00:37:15;;;;;;;;;7.33;7.33;;;;;12.30;63.73;101313.50;2092077;28;46367;-65
2021/11/05 00:38:16;;;;;;;;;6.33;5.33;;;;;12.31;63.68;101321.44;2091804;28;48341;-64
2021/11/05 00:39:17;;;;;;;;;4.50;4.00;;;;;12.31;63.81;101321.44;2083053;28;47447;-63
2021/11/05 00:40:19;;;;;;;;;4.00;4.00;;;;;12.30;63.78;101313.50;2082959;28;48692;-63
2021/11/05 00:41:19;;;;;;;;;3.25;3.00;;;;;12.29;63.54;101319.72;2083063;28;45679;-64
2021/11/05 00:42:20;;;;;;;;;4.67;4.00;;;;;12.28;63.47;101320.63;2083176;28;48082;-63
2021/11/05 00:43:20;;;;;;;;;4.00;3.00;;;;;12.28;63.72;101315.31;2091796;28;47285;-63
2021/11/05 00:44:21;;;;;;;;;7.00;4.00;;;;;12.27;63.84;101319.75;2085460;28;47239;-63
2021/11/05 00:45:22;;;;;;;;;4.00;3.67;;;;;12.27;63.84;101317.09;2091716;28;47254;-64
2021/11/05 00:46:23;;;;;;;;;3.50;3.00;;;;;12.27;63.94;101314.44;2086052;28;47633;-63
2021/11/05 00:47:23;;;;;;;;;6.67;5.33;;;;;12.27;63.86;101322.41;2087305;28;48140;-64
2021/11/05 00:48:23;;;;;;;;;3.67;3.67;;;;;12.27;64.19;101319.75;2091965;28;48308;-63
2021/11/05 00:49:24;;;;;;;;;4.67;4.67;;;;;12.28;63.91;101326.81;2086685;28;47130;-64
2021/11/05 00:50:25;;;;;;;;;3.67;3.67;;;;;12.28;63.91;101325.94;2086552;28;47307;-64
2021/11/05 00:51:26;;;;;;;;;3.67;2.67;;;;;12.28;63.70;101324.16;2085692;28;47231;-63
2021/11/05 00:52:27;;;;;;;;;3.00;3.00;;;;;12.29;63.80;101327.69;2090055;28;47292;-63
2021/11/05 00:53:27;;;;;;;;;5.33;2.67;;;;;12.29;63.58;101333.03;2083379;28;47192;-62
2021/11/05 00:54:28;;;;;;;;;4.00;4.00;;;;;12.29;63.70;101335.69;2084893;28;47007;-63
2021/11/05 00:55:28;;;;;;;;;3.33;3.33;;;;;12.29;63.71;101335.69;2087857;28;47398;-64
2021/11/05 00:56:30;;;;;;;;;3.00;3.00;;;;;12.28;63.77;101329.50;2092185;28;47136;-64
2021/11/05 00:57:30;;;;;;;;;4.00;4.00;;;;;12.29;63.74;101335.69;2094800;28;48375;-64
2021/11/05 00:58:31;;;;;;;;;5.00;5.00;;;;;12.29;63.66;101336.56;2083331;28;47622;-64
2021/11/05 00:59:31;;;;;;;;;2.67;2.67;;;;;12.29;63.54;101331.25;2082736;28;47418;-63
2021/11/05 01:00:33;;;;;;;;;4.00;4.00;;;;;12.29;63.59;101338.34;2094945;28;46173;-63
2021/11/05 01:01:33;;;;;;;;;5.25;4.50;;;;;12.29;63.79;101333.03;2091673;28;48570;-63
2021/11/05 01:02:34;;;;;;;;;2.67;2.67;;;;;12.29;63.81;101338.34;2092043;28;48448;-63
2021/11/05 01:03:35;;;;;;;;;6.67;4.00;;;;;12.28;63.51;101340.13;2082547;28;46059;-63
2021/11/05 01:04:36;;;;;;;;;4.00;3.33;;;;;12.28;63.58;101341.91;2089204;28;47009;-63
2021/11/05 01:05:36;;;;;;;;;5.50;4.75;;;;;12.29;63.53;101349.00;2091548;28;46693;-63
2021/11/05 01:06:37;;;;;;;;;3.00;3.00;;;;;12.27;63.51;101349.03;2087281;28;47053;-64
2021/11/05 01:07:38;;;;;;;;;3.33;3.33;;;;;12.27;63.74;101350.81;2091582;28;47286;-64
2021/11/05 01:08:38;;;;;;;;;3.00;3.00;;;;;12.27;63.33;101353.47;2091897;28;47196;-64
2021/11/05 01:09:39;;;;;;;;;4.00;4.00;;;;;12.27;63.46;101358.78;2091628;28;48167;-63
2021/11/05 01:10:40;;;;;;;;;4.67;4.67;;;;;12.26;63.48;101351.72;2091681;28;47177;-63
2021/11/05 01:11:40;;;;;;;;;2.67;2.33;;;;;12.25;63.45;101358.81;2088326;28;46761;-62
2021/11/05 01:12:41;;;;;;;;;3.00;3.00;;;;;12.24;63.45;101359.72;2091842;28;47395;-63
2021/11/05 01:13:42;;;;;;;;;6.33;4.67;;;;;12.25;63.51;101357.94;2091357;28;46515;-63
2021/11/05 01:14:42;;;;;;;;;4.00;4.00;;;;;12.25;63.49;101356.16;2091639;28;48107;-62
2021/11/05 01:15:42;;;;;;;;;4.33;4.00;;;;;12.25;63.51;101365.94;2091366;28;47993;-63
2021/11/05 01:16:43;;;;;;;;;4.00;4.00;;;;;12.25;63.51;101361.50;2070366;28;46926;-63
2021/11/05 01:17:44;;;;;;;;;3.67;3.00;;;;;12.24;63.41;101359.72;2065662;28;48393;-63
2021/11/05 01:18:46;;;;;;;;;4.33;3.67;;;;;12.25;63.39;101369.47;2078480;28;48161;-63
2021/11/05 01:19:47;;;;;;;;;6.50;5.50;;;;;12.23;63.48;101363.31;2089906;28;48259;-63
2021/11/05 01:20:48;;;;;;;;;3.67;3.67;;;;;12.23;63.48;101365.97;2091614;28;48164;-62
2021/11/05 01:21:48;;;;;;;;;4.00;2.25;;;;;12.22;63.51;101361.56;2086488;28;47855;-63
2021/11/05 01:22:49;;;;;;;;;2.33;2.33;;;;;12.23;63.67;101367.75;2090425;28;47549;-63
2021/11/05 01:23:50;;;;;;;;;3.50;3.00;;;;;12.23;63.62;101365.97;2089093;28;47947;-65
2021/11/05 01:24:50;;;;;;;;;3.67;3.00;;;;;12.23;63.56;101360.66;2090283;28;47309;-65
2021/11/05 01:25:52;;;;;;;;;4.00;4.00;;;;;12.24;63.35;101372.16;2086688;28;47266;-64
2021/11/05 01:26:52;;;;;;;;;3.50;2.00;;;;;12.24;63.56;101374.81;2091259;28;47435;-63
2021/11/05 01:27:53;;;;;;;;;5.00;4.00;;;;;12.22;63.37;101361.56;2082589;28;47246;-63
2021/11/05 01:28:53;;;;;;;;;4.00;4.00;;;;;12.23;63.45;101365.09;2082905;28;47263;-63
2021/11/05 01:29:57;;;;;;;;;3.33;3.33;;;;;12.23;63.61;101371.28;2082594;28;47324;-63
2021/11/05 01:30:57;;;;;;;;;4.00;3.00;;;;;12.23;63.48;101375.72;2082715;28;47347;-64
2021/11/05 01:31:58;;;;;;;;;3.00;3.00;;;;;12.25;63.61;101368.59;2091544;28;47265;-63
2021/11/05 01:33:06;;;;;;;;;5.00;4.00;;;;;12.23;63.46;101373.94;2082595;28;46326;-63
2021/11/05 01:34:07;;;;;;;;;3.00;3.00;;;;;12.23;63.32;101368.63;2082723;28;48429;-63
2021/11/05 01:35:09;;;;;;;;;4.33;4.33;;;;;12.23;63.27;101378.41;2082501;28;48077;-64
2021/11/05 01:36:09;;;;;;;;;3.00;3.00;;;;;12.21;63.25;101378.44;2091828;28;47160;-64
2021/11/05 01:37:10;;;;;;;;;5.00;4.67;;;;;12.22;63.34;101376.63;2091379;28;48247;-64
2021/11/05 01:38:10;;;;;;;;;3.00;2.00;;;;;12.20;63.34;101374.00;2091834;28;45294;-65
2021/11/05 01:39:11;;;;;;;;;3.00;3.00;;;;;12.20;63.40;101378.47;2091427;28;47244;-64
2021/11/05 01:40:13;;;;;;;;;3.00;3.00;;;;;12.20;63.57;101379.34;2091749;28;48359;-64
2021/11/05 01:41:14;;;;;;;;;3.75;3.75;;;;;12.20;63.54;101378.47;2091583;28;48538;-64
2021/11/05 01:42:14;;;;;;;;;4.00;3.00;;;;;12.20;63.55;101378.47;2091746;28;46182;-64
2021/11/05 01:43:15;;;;;;;;;3.00;3.00;;;;;12.20;63.92;101383.78;2091455;28;48756;-64
2021/11/05 01:44:16;;;;;;;;;2.75;2.75;;;;;12.19;63.50;101380.22;2086065;28;47294;-63
2021/11/05 01:45:18;;;;;;;;;3.67;3.67;;;;;12.20;63.43;101375.78;2077685;28;48355;-64
2021/11/05 01:46:20;;;;;;;;;3.00;3.00;;;;;12.21;63.44;101382.88;2082824;28;48250;-63
2021/11/05 01:47:21;;;;;;;;;3.00;3.00;;;;;12.21;63.64;101378.44;2087995;28;48593;-63
2021/11/05 01:48:21;;;;;;;;;4.00;4.00;;;;;12.20;63.53;101382.00;2085558;28;48193;-63
2021/11/05 01:49:22;;;;;;;;;4.33;3.00;;;;;12.21;63.66;101383.75;2091186;28;47302;-64
2021/11/05 01:50:23;;;;;;;;;3.33;3.33;;;;;12.20;63.31;101383.78;2082683;28;48434;-65
2021/11/05 01:51:23;;;;;;;;;4.00;4.00;;;;;12.20;63.64;101389.09;2082412;28;48633;-63
2021/11/05 01:52:24;;;;;;;;;5.00;5.00;;;;;12.20;63.47;101383.78;2091695;28;47882;-64
2021/11/05 01:53:25;;;;;;;;;4.25;3.00;;;;;12.21;63.49;101385.53;2082191;28;48284;-64
2021/11/05 01:54:26;;;;;;;;;3.50;2.50;;;;;12.21;63.53;101394.41;2082900;28;47379;-64
2021/11/05 01:55:26;;;;;;;;;3.67;2.67;;;;;12.22;63.37;101393.47;2090462;28;47194;-64
2021/11/05 01:56:27;;;;;;;;;5.00;4.00;;;;;12.21;63.44;101391.72;2091560;28;48082;-63
2021/11/05 01:57:27;;;;;;;;;4.00;4.00;;;;;12.22;63.48;101393.47;2087834;28;48011;-64
2021/11/05 01:58:28;;;;;;;;;5.00;4.00;;;;;12.22;63.29;101395.28;2080322;28;47211;-64
2021/11/05 01:59:32;;;;;;;;;4.33;3.33;;;;;12.22;63.37;101387.28;2082464;28;45506;-64
2021/11/05 02:00:33;;;;;;;;;4.50;4.00;;;;;12.21;63.29;101397.06;2097130;28;48296;-64
2021/11/05 02:01:34;;;;;;;;;3.00;2.00;;;;;12.21;63.47;101396.19;2082308;28;47478;-65
2021/11/05 02:02:35;;;;;;;;;4.50;4.50;;;;;12.21;63.30;101393.50;2083007;28;45273;-63
2021/11/05 02:03:35;;;;;;;;;7.00;4.33;;;;;12.20;63.26;101394.41;2091006;28;47566;-63
2021/11/05 02:04:36;;;;;;;;;3.00;3.00;;;;;12.20;63.16;101397.09;2091536;28;48179;-64
2021/11/05 02:05:38;;;;;;;;;3.67;3.67;;;;;12.19;63.34;101395.28;2091242;28;45959;-64
2021/11/05 02:06:42;;;;;;;;;2.00;2.00;;;;;12.19;63.25;101387.31;2091435;28;47202;-64
2021/11/05 02:07:46;;;;;;;;;3.75;3.75;;;;;12.18;63.16;101396.19;2090603;28;48386;-63
2021/11/05 02:08:50;;;;;;;;;4.00;3.00;;;;;12.19;63.12;101397.97;2091274;28;46882;-64
2021/11/05 02:09:51;;;;;;;;;3.50;2.75;;;;;12.17;63.08;101392.66;2081740;28;45566;-64
2021/11/05 02:10:54;;;;;;;;;3.67;3.67;;;;;12.18;63.34;101397.09;2081745;28;47081;-63
2021/11/05 02:11:59;;;;;;;;;3.00;3.00;;;;;12.18;63.40;101396.19;2083021;28;47282;-64
2021/11/05 02:13:00;;;;;;;;;3.50;3.50;;;;;12.17;63.36;101399.78;2086290;28;47165;-64
2021/11/05 02:14:03;;;;;;;;;4.33;3.00;;;;;12.16;63.13;101401.56;2090970;28;48367;-63
2021/11/05 02:15:06;;;;;;;;;2.75;2.75;;;;;12.17;63.27;101407.75;2082462;28;48256;-63
2021/11/05 02:16:09;;;;;;;;;4.00;3.25;;;;;12.17;63.36;101402.44;2079230;28;46723;-64
2021/11/05 02:17:10;;;;;;;;;5.00;5.00;;;;;12.17;63.23;101399.78;2088612;28;47713;-65
2021/11/05 02:18:11;;;;;;;;;8.67;4.00;;;;;12.17;63.35;101402.44;2082430;28;47021;-63
2021/11/05 02:19:14;;;;;;;;;5.67;5.67;;;;;12.16;63.38;101398.91;2082363;28;47249;-63
2021/11/05 02:20:20;;;;;;;;;7.25;5.50;;;;;12.17;63.22;101405.09;2091217;28;47278;-63
2021/11/05 02:21:21;;;;;;;;;7.00;5.00;;;;;12.17;63.19;101407.75;2090461;28;48395;-65
2021/11/05 02:22:22;;;;;;;;;3.75;3.75;;;;;12.18;63.27;101409.50;2091305;28;47427;-64
2021/11/05 02:23:24;;;;;;;;;6.33;5.00;;;;;12.18;63.33;101401.53;2091206;28;47045;-64
2021/11/05 02:24:26;;;;;;;;;5.00;4.75;;;;;12.18;63.29;101407.72;2091261;28;47746;-63
2021/11/05 02:25:27;;;;;;;;;3.50;3.50;;;;;12.19;63.16;101408.59;2085481;28;47203;-64
2021/11/05 02:26:27;;;;;;;;;4.00;2.67;;;;;12.18;63.22;101410.38;2084858;28;47258;-64
2021/11/05 02:27:30;;;;;;;;;4.67;3.67;;;;;12.17;63.50;101405.97;2091284;28;47982;-64
2021/11/05 02:28:36;;;;;;;;;3.25;3.25;;;;;12.18;63.38;101413.03;2082404;28;48249;-63
2021/11/05 02:29:36;;;;;;;;;5.25;4.50;;;;;12.18;63.40;101409.50;2082953;28;48399;-63
2021/11/05 02:30:37;;;;;;;;;4.00;4.00;;;;;12.18;63.40;101405.06;2083117;28;47211;-64
2021/11/05 02:31:39;;;;;;;;;4.67;3.00;;;;;12.18;63.20;101410.38;2087607;28;47094;-64
2021/11/05 02:32:42;;;;;;;;;5.25;4.75;;;;;12.18;63.27;101413.03;2097925;28;47988;-64
2021/11/05 02:33:42;;;;;;;;;2.25;2.25;;;;;12.17;63.04;101405.09;2089676;28;48201;-63
2021/11/05 02:34:43;;;;;;;;;3.33;3.33;;;;;12.17;63.07;101413.94;2082420;28;47090;-63
2021/11/05 02:35:43;;;;;;;;;5.67;4.00;;;;;12.18;63.23;101418.38;2082256;28;46420;-64
2021/11/05 02:36:45;;;;;;;;;4.00;4.00;;;;;12.17;63.17;101416.63;2080966;28;47176;-64
2021/11/05 02:37:46;;;;;;;;;4.25;3.75;;;;;12.18;63.24;101413.03;2082128;28;47423;-65
2021/11/05 02:38:47;;;;;;;;;5.00;5.00;;;;;12.19;63.15;101413.91;2091369;28;47354;-63
2021/11/05 02:39:47;;;;;;;;;5.67;5.00;;;;;12.18;63.33;101417.50;2090913;28;48075;-65
2021/11/05 02:40:48;;;;;;;;;4.33;4.33;;;;;12.17;63.35;101416.63;2091296;28;48005;-64
2021/11/05 02:41:50;;;;;;;;;8.00;5.33;;;;;12.18;63.56;101414.81;2091018;28;47214;-63
2021/11/05 02:42:51;;;;;;;;;4.75;4.25;;;;;12.16;63.38;101417.53;2091264;28;47447;-65
2021/11/05 02:43:52;;;;;;;;;4.00;4.00;;;;;12.17;62.99;101429.03;2088923;28;47191;-64
2021/11/05 02:44:53;;;;;;;;;7.50;6.00;;;;;12.17;63.26;101416.63;2090007;28;48615;-65
2021/11/05 02:45:54;;;;;;;;;1.33;1.33;;;;;12.17;63.07;101424.59;2090947;28;47404;-65
2021/11/05 02:46:54;;;;;;;;;3.33;3.33;;;;;12.17;63.29;101413.06;2088057;28;47066;-64
2021/11/05 02:47:55;;;;;;;;;4.67;4.67;;;;;12.17;63.26;101424.59;2088988;28;47079;-64
2021/11/05 02:49:01;;;;;;;;;4.00;4.00;;;;;12.17;63.16;101429.91;2082333;28;48126;-64
2021/11/05 02:50:08;;;;;;;;;4.00;4.00;;;;;12.18;63.27;101430.78;2082266;28;47701;-63
2021/11/05 02:51:09;;;;;;;;;3.00;3.00;;;;;12.17;63.29;101432.56;2088727;28;48565;-65
2021/11/05 02:52:11;;;;;;;;;5.50;4.50;;;;;12.16;63.17;101430.81;2091067;28;48335;-63
2021/11/05 02:53:12;;;;;;;;;4.00;2.33;;;;;12.16;63.17;101422.84;2091121;28;47589;-63
2021/11/05 02:54:12;;;;;;;;;4.50;4.50;;;;;12.16;63.10;101433.50;2091087;28;47388;-64
2021/11/05 02:55:14;;;;;;;;;4.00;3.00;;;;;12.17;63.27;101429.03;2082227;28;48093;-63
2021/11/05 02:56:15;;;;;;;;;3.00;2.75;;;;;12.17;63.05;101431.69;2082343;28;47298;-64
2021/11/05 02:57:16;;;;;;;;;3.00;3.00;;;;;12.16;63.01;101433.50;2091681;28;47165;-64
2021/11/05 02:58:17;;;;;;;;;3.00;3.00;;;;;12.16;62.88;101432.59;2091267;28;47668;-64
2021/11/05 02:59:17;;;;;;;;;3.00;3.00;;;;;12.14;63.05;101429.97;2091079;28;47746;-64
2021/11/05 03:00:18;;;;;;;;;5.00;4.33;;;;;12.15;63.07;101436.19;2084795;28;45235;-65
2021/11/05 03:01:19;;;;;;;;;4.00;3.33;;;;;12.15;63.10;101433.50;2075382;28;48065;-65
2021/11/05 03:02:23;;;;;;;;;4.00;4.00;;;;;12.14;63.07;101435.31;2090686;28;48108;-64
2021/11/05 03:03:23;;;;;;;;;3.00;3.00;;;;;12.15;63.09;101442.38;2090883;28;47183;-63
2021/11/05 03:04:24;;;;;;;;;3.00;3.00;;;;;12.14;63.14;101435.31;2095992;28;48236;-64
2021/11/05 03:05:25;;;;;;;;;3.33;3.00;;;;;12.16;63.15;101445.91;2092493;28;47277;-65
2021/11/05 03:06:25;;;;;;;;;3.00;3.00;;;;;12.15;63.12;101439.72;2091082;28;48210;-63
2021/11/05 03:07:26;;;;;;;;;3.00;3.00;;;;;12.15;63.09;101446.81;2082068;28;47552;-64
2021/11/05 03:08:26;;;;;;;;;3.33;3.00;;;;;12.15;63.05;101441.50;2081985;28;47320;-64
2021/11/05 03:09:32;;;;;;;;;5.00;2.00;;;;;12.15;63.07;101441.50;2091092;28;48072;-64
2021/11/05 03:10:34;;;;;;;;;3.00;2.00;;;;;12.15;62.84;101446.81;2091229;28;47748;-65
2021/11/05 03:11:35;;;;;;;;;2.25;2.25;;;;;12.14;63.09;101445.06;2090105;28;47312;-64
2021/11/05 03:12:36;;;;;;;;;4.75;4.00;;;;;12.14;63.00;101447.72;2091118;28;47856;-64
2021/11/05 03:13:36;;;;;;;;;4.00;4.00;;;;;12.14;62.94;101451.25;2090800;28;47164;-63
2021/11/05 03:14:38;;;;;;;;;4.67;3.67;;;;;12.13;62.97;101449.50;2091066;28;47196;-63
2021/11/05 03:15:39;;;;;;;;;4.00;4.00;;;;;12.13;63.06;101451.28;2082719;28;47452;-64
2021/11/05 03:16:40;;;;;;;;;4.67;4.00;;;;;12.13;62.92;101451.28;2089149;28;47154;-63
2021/11/05 03:17:42;;;;;;;;;4.25;3.75;;;;;12.12;62.92;101453.06;2085161;28;47010;-64
2021/11/05 03:18:42;;;;;;;;;5.50;4.00;;;;;12.13;63.06;101451.28;2092015;28;47446;-63
2021/11/05 03:19:43;;;;;;;;;3.00;3.00;;;;;12.13;62.83;101451.28;2092516;28;47098;-64
2021/11/05 03:20:45;;;;;;;;;5.00;4.00;;;;;12.12;62.86;101453.06;2091177;28;47253;-65
2021/11/05 03:21:45;;;;;;;;;4.25;3.25;;;;;12.12;62.89;101454.88;2090088;28;48255;-63
2021/11/05 03:22:47;;;;;;;;;4.00;4.00;;;;;12.11;62.88;101451.31;2084508;28;46971;-64
2021/11/05 03:23:47;;;;;;;;;3.00;3.00;;;;;12.12;62.98;101460.19;2083818;28;47591;-64
2021/11/05 03:24:48;;;;;;;;;3.00;3.00;;;;;12.12;63.03;101460.19;2085699;28;47215;-64
2021/11/05 03:25:48;;;;;;;;;4.00;3.33;;;;;12.11;62.79;101456.66;2091456;28;47051;-64
2021/11/05 03:26:49;;;;;;;;;4.33;2.67;;;;;12.12;62.90;101468.16;2092780;28;45366;-64
2021/11/05 03:27:50;;;;;;;;;4.50;4.00;;;;;12.11;62.94;101464.63;2092337;28;47111;-64
2021/11/05 03:28:51;;;;;;;;;4.00;4.00;;;;;12.11;63.03;101469.94;2083762;28;45461;-64
2021/11/05 03:29:52;;;;;;;;;3.00;3.00;;;;;12.11;62.82;101469.06;2083412;28;47314;-63
2021/11/05 03:30:52;;;;;;;;;2.00;2.00;;;;;12.10;63.04;101468.19;2081516;28;47231;-64
2021/11/05 03:31:53;;;;;;;;;2.00;2.00;;;;;12.10;63.03;101470.84;2079780;28;47942;-64
2021/11/05 03:32:53;;;;;;;;;3.33;3.33;;;;;12.11;63.01;101477.06;2092336;28;47215;-64
2021/11/05 03:33:54;;;;;;;;;4.00;3.00;;;;;12.10;62.94;101478.84;2075324;28;46963;-63
2021/11/05 03:34:54;;;;;;;;;3.00;3.00;;;;;12.11;62.86;101474.38;2075457;28;48296;-64
2021/11/05 03:35:55;;;;;;;;;4.00;2.00;;;;;12.10;62.94;101473.50;2083881;28;48357;-64
2021/11/05 03:36:55;;;;;;;;;4.00;4.00;;;;;12.10;62.75;101476.16;2084269;28;48242;-65
2021/11/05 03:37:56;;;;;;;;;3.00;3.00;;;;;12.09;62.77;101477.06;2083720;28;47174;-64
2021/11/05 03:38:57;;;;;;;;;5.00;4.00;;;;;12.10;62.92;101481.50;2075517;28;47849;-64
2021/11/05 03:39:58;;;;;;;;;3.00;3.00;;;;;12.08;62.85;101476.19;2075190;28;48288;-64
2021/11/05 03:40:58;;;;;;;;;3.00;3.00;;;;;12.10;62.88;101483.28;2075288;28;47797;-64
2021/11/05 03:41:59;;;;;;;;;5.00;3.00;;;;;12.10;62.73;101485.94;2074877;28;47689;-64
2021/11/05 03:43:00;;;;;;;;;3.75;3.75;;;;;12.10;62.96;101491.25;2083626;28;47760;-64
2021/11/05 03:44:00;;;;;;;;;3.67;3.67;;;;;12.10;62.84;101480.63;2092152;28;48213;-63
2021/11/05 03:45:01;;;;;;;;;4.33;3.00;;;;;12.08;62.94;101486.84;2092191;28;48185;-64
2021/11/05 03:46:04;;;;;;;;;3.33;3.00;;;;;12.07;62.86;101490.41;2083134;28;47686;-64
2021/11/05 03:47:04;;;;;;;;;7.25;5.00;;;;;12.07;62.64;101487.75;2083799;28;47250;-63
2021/11/05 03:48:05;;;;;;;;;3.00;3.00;;;;;12.08;62.77;101491.28;2083426;28;48366;-64
2021/11/05 03:49:07;;;;;;;;;5.67;4.67;;;;;12.06;62.69;101493.06;2084291;28;47961;-63
2021/11/05 03:50:07;;;;;;;;;5.00;3.50;;;;;12.04;62.83;101493.09;2083936;28;47657;-63
2021/11/05 03:51:09;;;;;;;;;2.67;2.67;;;;;12.04;62.86;101493.09;2083813;28;47091;-64
2021/11/05 03:52:10;;;;;;;;;3.00;3.00;;;;;12.05;62.68;101499.28;2075266;28;47275;-63
2021/11/05 03:53:10;;;;;;;;;3.25;3.25;;;;;12.05;62.63;101500.16;2074833;28;45333;-63
2021/11/05 03:54:11;;;;;;;;;4.00;3.00;;;;;12.03;62.76;101504.63;2084053;28;47201;-63
2021/11/05 03:55:12;;;;;;;;;4.33;3.00;;;;;12.04;62.72;101500.19;2083843;28;47670;-63
2021/11/05 03:56:13;;;;;;;;;3.00;3.00;;;;;12.03;62.62;101506.41;2084196;28;47184;-63
2021/11/05 03:57:13;;;;;;;;;4.00;3.00;;;;;12.01;62.79;101505.56;2083772;28;48381;-63
2021/11/05 03:58:14;;;;;;;;;1.67;1.67;;;;;12.02;62.72;101507.31;2075372;28;46375;-63
2021/11/05 03:59:14;;;;;;;;;4.00;4.00;;;;;12.02;62.81;101507.31;2075011;28;45118;-63
2021/11/05 04:00:15;;;;;;;;;2.33;2.33;;;;;12.02;62.86;101505.53;2084247;28;48200;-63
2021/11/05 04:01:19;;;;;;;;;3.00;3.00;;;;;12.01;62.49;101506.44;2089989;28;48036;-63
2021/11/05 04:02:19;;;;;;;;;3.00;3.00;;;;;12.03;62.54;101511.75;2092341;28;48756;-64
2021/11/05 04:03:21;;;;;;;;;2.00;2.00;;;;;12.03;62.78;101514.41;2091681;28;47620;-63
2021/11/05 04:04:22;;;;;;;;;5.50;3.75;;;;;12.01;62.76;101514.44;2092156;28;47741;-63
2021/11/05 04:05:23;;;;;;;;;3.00;1.75;;;;;12.02;62.73;101508.19;2091934;28;46465;-63
2021/11/05 04:06:23;;;;;;;;;4.00;4.00;;;;;12.03;62.59;101517.06;2083559;28;46615;-63
2021/11/05 04:07:24;;;;;;;;;2.00;2.00;;;;;12.03;62.60;101514.41;2083219;28;44998;-64
2021/11/05 04:08:24;;;;;;;;;4.00;3.33;;;;;12.03;62.42;101517.94;2092453;28;48230;-64
2021/11/05 04:09:25;;;;;;;;;2.00;2.00;;;;;12.04;62.74;101516.16;2091953;28;48596;-64
2021/11/05 04:10:25;;;;;;;;;3.00;2.00;;;;;12.02;62.59;101518.84;2092365;28;46652;-64
2021/11/05 04:11:27;;;;;;;;;4.00;4.00;;;;;12.01;62.58;101521.53;2085415;28;47463;-63
2021/11/05 04:12:28;;;;;;;;;3.25;3.25;;;;;12.01;62.49;101525.06;2089575;28;47170;-63
2021/11/05 04:13:28;;;;;;;;;3.25;3.25;;;;;12.00;62.38;101530.41;2091995;28;47511;-63
2021/11/05 04:14:29;;;;;;;;;3.00;3.00;;;;;11.99;62.61;101520.69;2092364;28;47342;-63
2021/11/05 04:15:29;;;;;;;;;4.00;2.00;;;;;11.99;62.47;101528.66;2083019;28;47241;-63
2021/11/05 04:16:30;;;;;;;;;3.67;3.00;;;;;12.00;62.45;101533.06;2083407;28;47623;-63
2021/11/05 04:17:30;;;;;;;;;3.33;3.33;;;;;11.98;62.46;101530.44;2088761;28;45594;-63
2021/11/05 04:18:31;;;;;;;;;3.67;2.00;;;;;11.99;62.59;101536.63;2077307;28;48005;-63
2021/11/05 04:19:32;;;;;;;;;2.00;1.00;;;;;12.00;62.68;101535.75;2083062;28;46553;-63
2021/11/05 04:20:34;;;;;;;;;2.00;2.00;;;;;12.00;62.39;101536.63;2092298;28;45279;-63
2021/11/05 04:21:35;;;;;;;;;2.25;2.00;;;;;12.01;62.46;101537.50;2088772;28;48180;-63
2021/11/05 04:22:35;;;;;;;;;3.00;3.00;;;;;12.02;62.36;101544.56;2092270;28;48339;-63
2021/11/05 04:23:36;;;;;;;;;5.67;4.67;;;;;12.02;62.54;101545.44;2082811;28;47367;-63
2021/11/05 04:24:37;;;;;;;;;3.00;3.00;;;;;12.02;62.39;101550.75;2075071;28;47540;-64
2021/11/05 04:25:37;;;;;;;;;2.00;2.00;;;;;12.03;62.55;101548.97;2067286;28;48585;-63
2021/11/05 04:26:38;;;;;;;;;3.00;3.00;;;;;12.02;62.52;101556.09;2077692;28;46052;-63
2021/11/05 04:27:39;;;;;;;;;5.00;3.67;;;;;12.02;62.44;101550.75;2083239;28;46332;-63
2021/11/05 04:28:39;;;;;;;;;2.67;2.67;;;;;12.03;62.25;101549.88;2083191;28;47221;-64
2021/11/05 04:29:40;;;;;;;;;4.33;2.33;;;;;12.02;62.43;101556.09;2091864;28;47174;-63
2021/11/05 04:30:40;;;;;;;;;5.00;4.00;;;;;12.02;62.61;101556.09;2092286;28;47156;-64
2021/11/05 04:31:41;;;;;;;;;3.00;3.00;;;;;12.03;62.32;101556.97;2090556;28;47087;-63
2021/11/05 04:32:42;;;;;;;;;5.00;3.33;;;;;12.02;62.24;101556.09;2091979;28;47481;-65
2021/11/05 04:33:43;;;;;;;;;3.00;3.00;;;;;12.02;62.26;101557.88;2091487;28;48399;-66
2021/11/05 04:34:43;;;;;;;;;4.67;3.00;;;;;12.01;62.42;101562.31;2091913;28;47056;-63
2021/11/05 04:35:44;;;;;;;;;2.67;2.67;;;;;12.02;62.56;101563.19;2091917;28;48482;-64
2021/11/05 04:36:45;;;;;;;;;3.00;2.00;;;;;12.02;62.32;101561.41;2091876;28;46350;-65
2021/11/05 04:37:46;;;;;;;;;3.00;3.00;;;;;12.03;62.38;101556.97;2091862;28;47138;-63
2021/11/05 04:38:46;;;;;;;;;3.33;2.00;;;;;12.03;62.17;101563.16;2091880;28;47950;-63
2021/11/05 04:39:47;;;;;;;;;2.67;2.67;;;;;12.03;62.26;101567.59;2091734;28;47513;-63
2021/11/05 04:40:47;;;;;;;;;4.00;3.33;;;;;12.03;62.18;101568.47;2083229;28;47122;-63
2021/11/05 04:41:48;;;;;;;;;3.00;3.00;;;;;12.04;62.26;101566.69;2082812;28;48210;-62
2021/11/05 04:42:48;;;;;;;;;1.00;1.00;;;;;12.04;62.31;101572.91;2086465;28;47060;-63
2021/11/05 04:43:50;;;;;;;;;6.00;4.67;;;;;12.03;62.18;101572.94;2090150;28;47237;-63